sensor_id;sensor_type;location;lat;lon;timestamp;P1;durP1;ratioP1;P2;durP2;ratioP2
59922;SDS011;45778;51.142;3.732;2023-08-30T00:00:17;6.05;;;4.45;;
59922;SDS011;45778;51.142;3.732;2023-08-30T00:02:44;7.15;;;4.45;;
59922;SDS011;45778;51.142;3.732;2023-08-30T00:05:10;5.57;;;3.97;;
59922;SDS011;45778;51.142;3.732;2023-08-30T00:07:38;7.22;;;4.15;;
59922;SDS011;45778;51.142;3.732;2023-08-30T00:10:05;5.03;;;3.63;;
59922;SDS011;45778;51.142;3.732;2023-08-30T00:12:32;6.60;;;4.30;;
59922;SDS011;45778;51.142;3.732;2023-08-30T00:14:58;5.50;;;4.07;;
59922;SDS011;45778;51.142;3.732;2023-08-30T00:17:27;6.28;;;4.22;;
59922;SDS011;45778;51.142;3.732;2023-08-30T00:19:56;7.45;;;4.13;;
59922;SDS011;45778;51.142;3.732;2023-08-30T00:22:22;9.32;;;4.30;;
59922;SDS011;45778;51.142;3.732;2023-08-30T00:24:48;6.57;;;3.72;;
59922;SDS011;45778;51.142;3.732;2023-08-30T00:27:17;11.20;;;4.30;;
59922;SDS011;45778;51.142;3.732;2023-08-30T00:29:42;7.53;;;4.35;;
59922;SDS011;45778;51.142;3.732;2023-08-30T00:32:08;8.57;;;4.68;;
59922;SDS011;45778;51.142;3.732;2023-08-30T00:34:34;6.10;;;4.00;;
59922;SDS011;45778;51.142;3.732;2023-08-30T00:36:59;7.45;;;4.60;;
59922;SDS011;45778;51.142;3.732;2023-08-30T00:39:26;8.82;;;4.72;;
59922;SDS011;45778;51.142;3.732;2023-08-30T00:41:52;7.28;;;5.00;;
59922;SDS011;45778;51.142;3.732;2023-08-30T00:44:17;6.22;;;4.70;;
59922;SDS011;45778;51.142;3.732;2023-08-30T00:46:43;7.57;;;4.97;;
59922;SDS011;45778;51.142;3.732;2023-08-30T00:49:09;12.95;;;4.78;;
59922;SDS011;45778;51.142;3.732;2023-08-30T00:51:35;11.93;;;5.97;;
59922;SDS011;45778;51.142;3.732;2023-08-30T00:54:01;9.10;;;4.85;;
59922;SDS011;45778;51.142;3.732;2023-08-30T00:56:27;7.55;;;5.00;;
59922;SDS011;45778;51.142;3.732;2023-08-30T00:58:54;10.88;;;5.53;;
59922;SDS011;45778;51.142;3.732;2023-08-30T01:01:20;10.95;;;5.60;;
59922;SDS011;45778;51.142;3.732;2023-08-30T01:03:47;7.72;;;5.40;;
59922;SDS011;45778;51.142;3.732;2023-08-30T01:06:13;7.13;;;5.38;;
59922;SDS011;45778;51.142;3.732;2023-08-30T01:08:39;7.50;;;4.93;;
59922;SDS011;45778;51.142;3.732;2023-08-30T01:11:20;10.23;;;5.35;;
59922;SDS011;45778;51.142;3.732;2023-08-30T01:13:56;8.10;;;4.78;;
59922;SDS011;45778;51.142;3.732;2023-08-30T01:16:25;8.48;;;5.43;;
59922;SDS011;45778;51.142;3.732;2023-08-30T01:18:53;9.93;;;6.72;;
59922;SDS011;45778;51.142;3.732;2023-08-30T01:24:37;8.60;;;5.32;;
59922;SDS011;45778;51.142;3.732;2023-08-30T01:27:23;8.57;;;4.97;;
59922;SDS011;45778;51.142;3.732;2023-08-30T01:29:55;10.17;;;4.90;;
59922;SDS011;45778;51.142;3.732;2023-08-30T01:32:22;11.48;;;5.20;;
59922;SDS011;45778;51.142;3.732;2023-08-30T01:34:51;7.32;;;4.75;;
59922;SDS011;45778;51.142;3.732;2023-08-30T01:37:16;7.50;;;4.85;;
59922;SDS011;45778;51.142;3.732;2023-08-30T01:39:43;8.50;;;5.43;;
59922;SDS011;45778;51.142;3.732;2023-08-30T01:42:10;7.20;;;5.00;;
59922;SDS011;45778;51.142;3.732;2023-08-30T01:44:39;8.23;;;5.45;;
59922;SDS011;45778;51.142;3.732;2023-08-30T01:47:09;7.10;;;4.75;;
59922;SDS011;45778;51.142;3.732;2023-08-30T01:49:36;5.85;;;4.63;;
59922;SDS011;45778;51.142;3.732;2023-08-30T01:52:04;10.27;;;5.95;;
59922;SDS011;45778;51.142;3.732;2023-08-30T01:54:31;7.13;;;5.22;;
59922;SDS011;45778;51.142;3.732;2023-08-30T01:56:58;7.88;;;5.00;;
59922;SDS011;45778;51.142;3.732;2023-08-30T01:59:24;5.75;;;4.57;;
59922;SDS011;45778;51.142;3.732;2023-08-30T02:01:51;11.20;;;5.60;;
59922;SDS011;45778;51.142;3.732;2023-08-30T02:04:16;6.35;;;4.50;;
59922;SDS011;45778;51.142;3.732;2023-08-30T02:06:46;10.30;;;4.95;;
59922;SDS011;45778;51.142;3.732;2023-08-30T02:09:19;7.35;;;4.15;;
59922;SDS011;45778;51.142;3.732;2023-08-30T02:11:50;6.53;;;4.30;;
59922;SDS011;45778;51.142;3.732;2023-08-30T02:14:17;6.72;;;4.35;;
59922;SDS011;45778;51.142;3.732;2023-08-30T02:16:47;4.72;;;3.97;;
59922;SDS011;45778;51.142;3.732;2023-08-30T02:19:13;5.53;;;4.40;;
59922;SDS011;45778;51.142;3.732;2023-08-30T02:21:45;9.73;;;4.78;;
59922;SDS011;45778;51.142;3.732;2023-08-30T02:24:12;10.85;;;4.20;;
59922;SDS011;45778;51.142;3.732;2023-08-30T02:26:41;6.10;;;4.05;;
59922;SDS011;45778;51.142;3.732;2023-08-30T02:29:06;7.40;;;4.20;;
59922;SDS011;45778;51.142;3.732;2023-08-30T02:31:33;7.15;;;4.32;;
59922;SDS011;45778;51.142;3.732;2023-08-30T02:33:59;6.47;;;4.57;;
59922;SDS011;45778;51.142;3.732;2023-08-30T02:36:24;7.60;;;4.18;;
59922;SDS011;45778;51.142;3.732;2023-08-30T02:38:50;7.10;;;4.57;;
59922;SDS011;45778;51.142;3.732;2023-08-30T02:41:15;11.43;;;5.40;;
59922;SDS011;45778;51.142;3.732;2023-08-30T02:43:41;6.20;;;4.70;;
59922;SDS011;45778;51.142;3.732;2023-08-30T02:46:10;8.25;;;4.40;;
59922;SDS011;45778;51.142;3.732;2023-08-30T02:48:35;9.20;;;4.53;;
59922;SDS011;45778;51.142;3.732;2023-08-30T02:51:01;8.02;;;4.97;;
59922;SDS011;45778;51.142;3.732;2023-08-30T02:53:27;6.43;;;4.70;;
59922;SDS011;45778;51.142;3.732;2023-08-30T02:55:52;9.65;;;5.10;;
59922;SDS011;45778;51.142;3.732;2023-08-30T02:58:20;7.75;;;4.40;;
59922;SDS011;45778;51.142;3.732;2023-08-30T03:00:46;5.88;;;4.32;;
59922;SDS011;45778;51.142;3.732;2023-08-30T03:03:12;9.30;;;5.07;;
59922;SDS011;45778;51.142;3.732;2023-08-30T03:05:38;7.93;;;4.40;;
59922;SDS011;45778;51.142;3.732;2023-08-30T03:08:04;8.60;;;5.22;;
59922;SDS011;45778;51.142;3.732;2023-08-30T03:10:29;8.68;;;6.20;;
59922;SDS011;45778;51.142;3.732;2023-08-30T03:12:55;11.23;;;6.63;;
59922;SDS011;45778;51.142;3.732;2023-08-30T03:15:21;9.35;;;6.57;;
59922;SDS011;45778;51.142;3.732;2023-08-30T03:17:46;10.98;;;6.90;;
59922;SDS011;45778;51.142;3.732;2023-08-30T03:20:12;10.60;;;6.72;;
59922;SDS011;45778;51.142;3.732;2023-08-30T03:22:38;11.68;;;7.03;;
59922;SDS011;45778;51.142;3.732;2023-08-30T03:25:03;11.55;;;7.20;;
59922;SDS011;45778;51.142;3.732;2023-08-30T03:27:30;14.73;;;7.50;;
59922;SDS011;45778;51.142;3.732;2023-08-30T03:29:55;9.50;;;6.53;;
59922;SDS011;45778;51.142;3.732;2023-08-30T03:32:21;11.00;;;6.40;;
59922;SDS011;45778;51.142;3.732;2023-08-30T03:34:47;12.18;;;6.90;;
59922;SDS011;45778;51.142;3.732;2023-08-30T03:37:14;10.68;;;6.32;;
59922;SDS011;45778;51.142;3.732;2023-08-30T03:39:40;10.23;;;6.18;;
59922;SDS011;45778;51.142;3.732;2023-08-30T03:42:06;11.60;;;6.43;;
59922;SDS011;45778;51.142;3.732;2023-08-30T03:44:32;11.18;;;7.15;;
59922;SDS011;45778;51.142;3.732;2023-08-30T03:46:58;11.60;;;6.20;;
59922;SDS011;45778;51.142;3.732;2023-08-30T03:49:23;9.27;;;6.10;;
59922;SDS011;45778;51.142;3.732;2023-08-30T03:51:49;9.30;;;6.18;;
59922;SDS011;45778;51.142;3.732;2023-08-30T03:54:15;7.85;;;6.00;;
59922;SDS011;45778;51.142;3.732;2023-08-30T03:56:43;12.05;;;6.40;;
59922;SDS011;45778;51.142;3.732;2023-08-30T03:59:10;7.82;;;5.40;;
59922;SDS011;45778;51.142;3.732;2023-08-30T04:01:36;9.05;;;6.43;;
59922;SDS011;45778;51.142;3.732;2023-08-30T04:04:02;10.45;;;6.03;;
59922;SDS011;45778;51.142;3.732;2023-08-30T04:06:28;10.73;;;6.93;;
59922;SDS011;45778;51.142;3.732;2023-08-30T04:08:53;9.95;;;6.35;;
59922;SDS011;45778;51.142;3.732;2023-08-30T04:11:19;9.88;;;7.13;;
59922;SDS011;45778;51.142;3.732;2023-08-30T04:13:45;11.85;;;7.82;;
59922;SDS011;45778;51.142;3.732;2023-08-30T04:16:10;11.60;;;7.57;;
59922;SDS011;45778;51.142;3.732;2023-08-30T04:18:36;14.52;;;7.38;;
59922;SDS011;45778;51.142;3.732;2023-08-30T04:21:02;14.25;;;7.40;;
59922;SDS011;45778;51.142;3.732;2023-08-30T04:23:28;11.68;;;7.07;;
59922;SDS011;45778;51.142;3.732;2023-08-30T04:25:54;12.55;;;7.70;;
59922;SDS011;45778;51.142;3.732;2023-08-30T04:28:20;10.02;;;7.15;;
59922;SDS011;45778;51.142;3.732;2023-08-30T04:30:46;10.00;;;6.72;;
59922;SDS011;45778;51.142;3.732;2023-08-30T04:33:12;10.18;;;7.95;;
59922;SDS011;45778;51.142;3.732;2023-08-30T04:35:38;12.77;;;7.82;;
59922;SDS011;45778;51.142;3.732;2023-08-30T04:38:04;9.90;;;7.65;;
59922;SDS011;45778;51.142;3.732;2023-08-30T04:40:30;11.80;;;9.07;;
59922;SDS011;45778;51.142;3.732;2023-08-30T04:42:58;10.05;;;7.15;;
59922;SDS011;45778;51.142;3.732;2023-08-30T04:45:24;13.02;;;8.02;;
59922;SDS011;45778;51.142;3.732;2023-08-30T04:47:49;13.52;;;9.13;;
59922;SDS011;45778;51.142;3.732;2023-08-30T04:50:15;14.45;;;9.80;;
59922;SDS011;45778;51.142;3.732;2023-08-30T04:52:42;14.10;;;9.88;;
59922;SDS011;45778;51.142;3.732;2023-08-30T04:55:08;14.07;;;10.50;;
59922;SDS011;45778;51.142;3.732;2023-08-30T04:57:34;16.48;;;11.15;;
59922;SDS011;45778;51.142;3.732;2023-08-30T04:59:59;16.70;;;10.77;;
59922;SDS011;45778;51.142;3.732;2023-08-30T05:02:29;14.73;;;10.52;;
59922;SDS011;45778;51.142;3.732;2023-08-30T05:04:55;20.70;;;11.25;;
59922;SDS011;45778;51.142;3.732;2023-08-30T05:07:21;14.43;;;11.25;;
59922;SDS011;45778;51.142;3.732;2023-08-30T05:09:46;17.00;;;11.23;;
59922;SDS011;45778;51.142;3.732;2023-08-30T05:12:12;17.45;;;11.50;;
59922;SDS011;45778;51.142;3.732;2023-08-30T05:14:38;15.38;;;11.48;;
59922;SDS011;45778;51.142;3.732;2023-08-30T05:17:03;15.40;;;10.88;;
59922;SDS011;45778;51.142;3.732;2023-08-30T05:19:29;19.75;;;11.35;;
59922;SDS011;45778;51.142;3.732;2023-08-30T05:21:55;17.15;;;12.20;;
59922;SDS011;45778;51.142;3.732;2023-08-30T05:24:21;21.83;;;12.48;;
59922;SDS011;45778;51.142;3.732;2023-08-30T05:26:47;17.10;;;11.77;;
59922;SDS011;45778;51.142;3.732;2023-08-30T05:29:14;18.02;;;12.20;;
59922;SDS011;45778;51.142;3.732;2023-08-30T05:31:40;16.88;;;11.38;;
59922;SDS011;45778;51.142;3.732;2023-08-30T05:34:09;15.68;;;10.88;;
59922;SDS011;45778;51.142;3.732;2023-08-30T05:36:35;15.20;;;9.02;;
59922;SDS011;45778;51.142;3.732;2023-08-30T05:39:01;16.15;;;10.07;;
59922;SDS011;45778;51.142;3.732;2023-08-30T05:41:28;18.10;;;9.48;;
59922;SDS011;45778;51.142;3.732;2023-08-30T05:43:57;15.25;;;9.40;;
59922;SDS011;45778;51.142;3.732;2023-08-30T05:46:23;16.92;;;9.10;;
59922;SDS011;45778;51.142;3.732;2023-08-30T05:48:49;12.77;;;8.82;;
59922;SDS011;45778;51.142;3.732;2023-08-30T05:51:14;13.73;;;7.78;;
59922;SDS011;45778;51.142;3.732;2023-08-30T05:53:40;17.45;;;7.68;;
59922;SDS011;45778;51.142;3.732;2023-08-30T05:56:06;10.10;;;5.97;;
59922;SDS011;45778;51.142;3.732;2023-08-30T05:58:32;11.23;;;4.82;;
59922;SDS011;45778;51.142;3.732;2023-08-30T06:00:58;8.32;;;5.65;;
59922;SDS011;45778;51.142;3.732;2023-08-30T06:03:28;9.98;;;5.63;;
59922;SDS011;45778;51.142;3.732;2023-08-30T06:05:54;10.60;;;5.68;;
59922;SDS011;45778;51.142;3.732;2023-08-30T06:08:20;8.82;;;3.42;;
59922;SDS011;45778;51.142;3.732;2023-08-30T06:10:46;5.13;;;3.70;;
59922;SDS011;45778;51.142;3.732;2023-08-30T06:13:11;9.18;;;5.32;;
59922;SDS011;45778;51.142;3.732;2023-08-30T06:15:37;7.03;;;4.70;;
59922;SDS011;45778;51.142;3.732;2023-08-30T06:18:04;8.38;;;5.40;;
59922;SDS011;45778;51.142;3.732;2023-08-30T06:20:29;6.47;;;4.43;;
59922;SDS011;45778;51.142;3.732;2023-08-30T06:22:57;8.45;;;4.63;;
59922;SDS011;45778;51.142;3.732;2023-08-30T06:25:35;9.82;;;4.90;;
59922;SDS011;45778;51.142;3.732;2023-08-30T06:28:00;6.30;;;4.47;;
59922;SDS011;45778;51.142;3.732;2023-08-30T06:30:28;8.30;;;4.55;;
59922;SDS011;45778;51.142;3.732;2023-08-30T06:32:57;13.07;;;5.13;;
59922;SDS011;45778;51.142;3.732;2023-08-30T06:35:26;9.30;;;4.55;;
59922;SDS011;45778;51.142;3.732;2023-08-30T06:37:52;0.22;;;0.22;;
59922;SDS011;45778;51.142;3.732;2023-08-30T06:40:18;1.88;;;0.80;;
59922;SDS011;45778;51.142;3.732;2023-08-30T06:42:43;0.43;;;0.43;;
59922;SDS011;45778;51.142;3.732;2023-08-30T06:45:09;0.00;;;0.00;;
59922;SDS011;45778;51.142;3.732;2023-08-30T06:47:36;0.25;;;0.25;;
59922;SDS011;45778;51.142;3.732;2023-08-30T06:50:01;1.38;;;0.98;;
59922;SDS011;45778;51.142;3.732;2023-08-30T06:52:28;1.95;;;0.43;;
59922;SDS011;45778;51.142;3.732;2023-08-30T06:54:54;0.80;;;0.35;;
59922;SDS011;45778;51.142;3.732;2023-08-30T06:57:20;0.43;;;0.43;;
59922;SDS011;45778;51.142;3.732;2023-08-30T06:59:48;1.85;;;0.80;;
59922;SDS011;45778;51.142;3.732;2023-08-30T07:02:13;0.10;;;0.10;;
59922;SDS011;45778;51.142;3.732;2023-08-30T07:04:39;0.52;;;0.47;;
59922;SDS011;45778;51.142;3.732;2023-08-30T07:07:05;0.20;;;0.20;;
59922;SDS011;45778;51.142;3.732;2023-08-30T07:09:30;0.40;;;0.40;;
59922;SDS011;45778;51.142;3.732;2023-08-30T07:11:59;0.05;;;0.05;;
59922;SDS011;45778;51.142;3.732;2023-08-30T07:14:24;0.00;;;0.00;;
59922;SDS011;45778;51.142;3.732;2023-08-30T07:16:53;0.20;;;0.20;;
59922;SDS011;45778;51.142;3.732;2023-08-30T07:19:28;1.30;;;0.52;;
59922;SDS011;45778;51.142;3.732;2023-08-30T07:21:54;0.10;;;0.10;;
59922;SDS011;45778;51.142;3.732;2023-08-30T07:24:22;0.22;;;0.22;;
59922;SDS011;45778;51.142;3.732;2023-08-30T07:26:48;0.30;;;0.30;;
59922;SDS011;45778;51.142;3.732;2023-08-30T07:29:14;0.50;;;0.50;;
59922;SDS011;45778;51.142;3.732;2023-08-30T07:31:39;1.08;;;0.70;;
59922;SDS011;45778;51.142;3.732;2023-08-30T07:34:06;4.30;;;1.45;;
59922;SDS011;45778;51.142;3.732;2023-08-30T07:36:33;0.20;;;0.20;;
59922;SDS011;45778;51.142;3.732;2023-08-30T07:38:58;0.00;;;0.00;;
59922;SDS011;45778;51.142;3.732;2023-08-30T07:41:24;0.75;;;0.45;;
59922;SDS011;45778;51.142;3.732;2023-08-30T07:43:50;0.10;;;0.10;;
59922;SDS011;45778;51.142;3.732;2023-08-30T07:46:15;0.50;;;0.50;;
59922;SDS011;45778;51.142;3.732;2023-08-30T07:48:41;0.10;;;0.10;;
59922;SDS011;45778;51.142;3.732;2023-08-30T07:51:07;0.10;;;0.10;;
59922;SDS011;45778;51.142;3.732;2023-08-30T07:53:32;1.25;;;1.20;;
59922;SDS011;45778;51.142;3.732;2023-08-30T07:55:58;0.03;;;0.03;;
59922;SDS011;45778;51.142;3.732;2023-08-30T07:58:23;0.65;;;0.65;;
59922;SDS011;45778;51.142;3.732;2023-08-30T08:00:52;2.08;;;0.43;;
59922;SDS011;45778;51.142;3.732;2023-08-30T08:03:20;0.00;;;0.00;;
59922;SDS011;45778;51.142;3.732;2023-08-30T08:05:46;0.15;;;0.15;;
59922;SDS011;45778;51.142;3.732;2023-08-30T08:08:12;2.00;;;1.88;;
59922;SDS011;45778;51.142;3.732;2023-08-30T08:10:39;0.10;;;0.10;;
59922;SDS011;45778;51.142;3.732;2023-08-30T08:13:06;0.15;;;0.15;;
59922;SDS011;45778;51.142;3.732;2023-08-30T08:15:32;0.00;;;0.00;;
59922;SDS011;45778;51.142;3.732;2023-08-30T08:17:59;0.20;;;0.20;;
59922;SDS011;45778;51.142;3.732;2023-08-30T08:20:25;0.00;;;0.00;;
59922;SDS011;45778;51.142;3.732;2023-08-30T08:22:51;0.00;;;0.00;;
59922;SDS011;45778;51.142;3.732;2023-08-30T08:25:17;0.00;;;0.00;;
59922;SDS011;45778;51.142;3.732;2023-08-30T08:27:42;0.10;;;0.10;;
59922;SDS011;45778;51.142;3.732;2023-08-30T08:30:08;0.80;;;0.63;;
59922;SDS011;45778;51.142;3.732;2023-08-30T08:32:35;0.40;;;0.40;;
59922;SDS011;45778;51.142;3.732;2023-08-30T08:35:01;1.35;;;0.98;;
59922;SDS011;45778;51.142;3.732;2023-08-30T08:37:27;0.00;;;0.00;;
59922;SDS011;45778;51.142;3.732;2023-08-30T08:39:53;0.10;;;0.10;;
59922;SDS011;45778;51.142;3.732;2023-08-30T08:42:19;0.22;;;0.22;;
59922;SDS011;45778;51.142;3.732;2023-08-30T08:44:51;0.10;;;0.10;;
59922;SDS011;45778;51.142;3.732;2023-08-30T08:47:19;1.15;;;1.08;;
59922;SDS011;45778;51.142;3.732;2023-08-30T08:49:49;0.00;;;0.00;;
59922;SDS011;45778;51.142;3.732;2023-08-30T08:52:16;0.00;;;0.00;;
59922;SDS011;45778;51.142;3.732;2023-08-30T08:54:42;0.20;;;0.20;;
59922;SDS011;45778;51.142;3.732;2023-08-30T08:57:08;0.10;;;0.10;;
59922;SDS011;45778;51.142;3.732;2023-08-30T08:59:34;0.00;;;0.00;;
59922;SDS011;45778;51.142;3.732;2023-08-30T09:02:01;0.08;;;0.00;;
59922;SDS011;45778;51.142;3.732;2023-08-30T09:04:29;0.63;;;0.20;;
59922;SDS011;45778;51.142;3.732;2023-08-30T09:06:56;0.00;;;0.00;;
59922;SDS011;45778;51.142;3.732;2023-08-30T09:09:23;0.00;;;0.00;;
59922;SDS011;45778;51.142;3.732;2023-08-30T09:11:49;0.65;;;0.43;;
59922;SDS011;45778;51.142;3.732;2023-08-30T09:14:15;0.00;;;0.00;;
59922;SDS011;45778;51.142;3.732;2023-08-30T09:16:40;0.10;;;0.10;;
59922;SDS011;45778;51.142;3.732;2023-08-30T09:19:06;0.77;;;0.77;;
59922;SDS011;45778;51.142;3.732;2023-08-30T09:21:32;0.00;;;0.00;;
59922;SDS011;45778;51.142;3.732;2023-08-30T09:24:02;0.00;;;0.00;;
59922;SDS011;45778;51.142;3.732;2023-08-30T09:26:29;0.00;;;0.00;;
59922;SDS011;45778;51.142;3.732;2023-08-30T09:29:07;0.00;;;0.00;;
59922;SDS011;45778;51.142;3.732;2023-08-30T09:31:37;0.00;;;0.00;;
59922;SDS011;45778;51.142;3.732;2023-08-30T09:34:07;0.22;;;0.22;;
59922;SDS011;45778;51.142;3.732;2023-08-30T09:36:42;0.00;;;0.00;;
59922;SDS011;45778;51.142;3.732;2023-08-30T09:39:10;0.25;;;0.25;;
59922;SDS011;45778;51.142;3.732;2023-08-30T09:41:40;0.00;;;0.00;;
59922;SDS011;45778;51.142;3.732;2023-08-30T09:44:13;0.10;;;0.10;;
59922;SDS011;45778;51.142;3.732;2023-08-30T09:46:44;2.60;;;1.50;;
59922;SDS011;45778;51.142;3.732;2023-08-30T09:49:12;0.03;;;0.03;;
59922;SDS011;45778;51.142;3.732;2023-08-30T09:51:39;0.32;;;0.32;;
59922;SDS011;45778;51.142;3.732;2023-08-30T09:54:07;0.00;;;0.00;;
59922;SDS011;45778;51.142;3.732;2023-08-30T09:56:41;0.32;;;0.32;;
59922;SDS011;45778;51.142;3.732;2023-08-30T09:59:09;0.10;;;0.10;;
59922;SDS011;45778;51.142;3.732;2023-08-30T10:01:40;0.32;;;0.30;;
59922;SDS011;45778;51.142;3.732;2023-08-30T10:04:07;0.00;;;0.00;;
59922;SDS011;45778;51.142;3.732;2023-08-30T10:06:34;0.60;;;0.60;;
59922;SDS011;45778;51.142;3.732;2023-08-30T10:09:01;0.00;;;0.00;;
59922;SDS011;45778;51.142;3.732;2023-08-30T10:11:28;1.65;;;0.57;;
59922;SDS011;45778;51.142;3.732;2023-08-30T10:13:57;0.00;;;0.00;;
59922;SDS011;45778;51.142;3.732;2023-08-30T10:16:24;0.00;;;0.00;;
59922;SDS011;45778;51.142;3.732;2023-08-30T10:18:54;1.20;;;0.85;;
59922;SDS011;45778;51.142;3.732;2023-08-30T10:21:32;0.30;;;0.20;;
59922;SDS011;45778;51.142;3.732;2023-08-30T10:24:01;0.15;;;0.15;;
59922;SDS011;45778;51.142;3.732;2023-08-30T10:26:28;0.00;;;0.00;;
59922;SDS011;45778;51.142;3.732;2023-08-30T10:28:55;0.03;;;0.00;;
59922;SDS011;45778;51.142;3.732;2023-08-30T10:31:24;1.20;;;0.63;;
59922;SDS011;45778;51.142;3.732;2023-08-30T10:33:50;0.10;;;0.10;;
59922;SDS011;45778;51.142;3.732;2023-08-30T10:36:23;0.10;;;0.10;;
59922;SDS011;45778;51.142;3.732;2023-08-30T10:38:51;1.35;;;0.60;;
59922;SDS011;45778;51.142;3.732;2023-08-30T10:41:21;5.78;;;1.10;;
59922;SDS011;45778;51.142;3.732;2023-08-30T10:43:49;1.75;;;0.65;;
59922;SDS011;45778;51.142;3.732;2023-08-30T10:46:16;0.00;;;0.00;;
59922;SDS011;45778;51.142;3.732;2023-08-30T10:48:42;0.00;;;0.00;;
59922;SDS011;45778;51.142;3.732;2023-08-30T10:54:13;0.25;;;0.25;;
59922;SDS011;45778;51.142;3.732;2023-08-30T10:56:56;0.28;;;0.28;;
59922;SDS011;45778;51.142;3.732;2023-08-30T10:59:25;0.10;;;0.10;;
59922;SDS011;45778;51.142;3.732;2023-08-30T11:01:51;0.08;;;0.08;;
59922;SDS011;45778;51.142;3.732;2023-08-30T11:04:18;4.13;;;0.47;;
59922;SDS011;45778;51.142;3.732;2023-08-30T11:06:46;0.00;;;0.00;;
59922;SDS011;45778;51.142;3.732;2023-08-30T11:09:16;0.10;;;0.10;;
59922;SDS011;45778;51.142;3.732;2023-08-30T11:11:43;0.00;;;0.00;;
59922;SDS011;45778;51.142;3.732;2023-08-30T11:14:10;0.03;;;0.03;;
59922;SDS011;45778;51.142;3.732;2023-08-30T11:16:37;0.00;;;0.00;;
59922;SDS011;45778;51.142;3.732;2023-08-30T11:19:04;0.20;;;0.20;;
59922;SDS011;45778;51.142;3.732;2023-08-30T11:21:31;0.10;;;0.10;;
59922;SDS011;45778;51.142;3.732;2023-08-30T11:23:59;0.00;;;0.00;;
59922;SDS011;45778;51.142;3.732;2023-08-30T11:26:25;0.00;;;0.00;;
59922;SDS011;45778;51.142;3.732;2023-08-30T11:28:51;0.00;;;0.00;;
59922;SDS011;45778;51.142;3.732;2023-08-30T11:31:24;0.10;;;0.10;;
59922;SDS011;45778;51.142;3.732;2023-08-30T11:33:54;3.58;;;0.60;;
59922;SDS011;45778;51.142;3.732;2023-08-30T11:36:23;3.20;;;1.38;;
59922;SDS011;45778;51.142;3.732;2023-08-30T11:38:51;0.93;;;0.43;;
59922;SDS011;45778;51.142;3.732;2023-08-30T11:41:20;4.22;;;0.70;;
59922;SDS011;45778;51.142;3.732;2023-08-30T11:43:49;3.35;;;1.63;;
59922;SDS011;45778;51.142;3.732;2023-08-30T11:46:19;6.80;;;1.13;;
59922;SDS011;45778;51.142;3.732;2023-08-30T11:48:46;7.65;;;0.98;;
59922;SDS011;45778;51.142;3.732;2023-08-30T11:51:14;2.45;;;0.90;;
59922;SDS011;45778;51.142;3.732;2023-08-30T11:53:44;2.25;;;0.60;;
59922;SDS011;45778;51.142;3.732;2023-08-30T11:56:11;3.72;;;0.80;;
59922;SDS011;45778;51.142;3.732;2023-08-30T11:58:37;4.10;;;0.75;;
59922;SDS011;45778;51.142;3.732;2023-08-30T12:01:03;4.50;;;0.73;;
59922;SDS011;45778;51.142;3.732;2023-08-30T12:03:32;4.35;;;0.80;;
59922;SDS011;45778;51.142;3.732;2023-08-30T12:05:58;5.35;;;0.77;;
59922;SDS011;45778;51.142;3.732;2023-08-30T12:08:25;6.28;;;1.00;;
59922;SDS011;45778;51.142;3.732;2023-08-30T12:10:55;3.40;;;0.70;;
59922;SDS011;45778;51.142;3.732;2023-08-30T12:13:26;4.97;;;1.08;;
59922;SDS011;45778;51.142;3.732;2023-08-30T12:15:53;1.95;;;0.80;;
59922;SDS011;45778;51.142;3.732;2023-08-30T12:18:20;5.05;;;1.20;;
59922;SDS011;45778;51.142;3.732;2023-08-30T12:20:55;4.45;;;0.75;;
59922;SDS011;45778;51.142;3.732;2023-08-30T12:23:22;4.50;;;1.02;;
59922;SDS011;45778;51.142;3.732;2023-08-30T12:28:32;5.65;;;1.10;;
59922;SDS011;45778;51.142;3.732;2023-08-30T12:31:05;3.80;;;0.80;;
59922;SDS011;45778;51.142;3.732;2023-08-30T12:33:32;3.28;;;0.80;;
59922;SDS011;45778;51.142;3.732;2023-08-30T12:35:59;2.17;;;0.98;;
59922;SDS011;45778;51.142;3.732;2023-08-30T12:38:25;2.40;;;0.70;;
59922;SDS011;45778;51.142;3.732;2023-08-30T12:40:52;3.13;;;0.80;;
59922;SDS011;45778;51.142;3.732;2023-08-30T12:43:21;1.33;;;0.45;;
59922;SDS011;45778;51.142;3.732;2023-08-30T12:45:48;3.15;;;0.80;;
59922;SDS011;45778;51.142;3.732;2023-08-30T12:48:15;1.75;;;0.52;;
59922;SDS011;45778;51.142;3.732;2023-08-30T12:50:43;5.28;;;0.90;;
59922;SDS011;45778;51.142;3.732;2023-08-30T12:53:10;3.53;;;0.85;;
59922;SDS011;45778;51.142;3.732;2023-08-30T12:55:36;3.30;;;0.70;;
59922;SDS011;45778;51.142;3.732;2023-08-30T12:58:05;3.72;;;1.00;;
59922;SDS011;45778;51.142;3.732;2023-08-30T13:00:34;5.68;;;0.93;;
59922;SDS011;45778;51.142;3.732;2023-08-30T13:03:00;2.40;;;0.70;;
59922;SDS011;45778;51.142;3.732;2023-08-30T13:05:28;1.30;;;0.52;;
59922;SDS011;45778;51.142;3.732;2023-08-30T13:07:55;5.65;;;0.80;;
59922;SDS011;45778;51.142;3.732;2023-08-30T13:10:21;2.67;;;0.70;;
59922;SDS011;45778;51.142;3.732;2023-08-30T13:12:46;5.57;;;0.85;;
59922;SDS011;45778;51.142;3.732;2023-08-30T13:15:12;3.70;;;0.77;;
59922;SDS011;45778;51.142;3.732;2023-08-30T13:17:38;2.17;;;0.63;;
59922;SDS011;45778;51.142;3.732;2023-08-30T13:20:03;3.97;;;0.77;;
59922;SDS011;45778;51.142;3.732;2023-08-30T13:22:30;3.70;;;0.68;;
59922;SDS011;45778;51.142;3.732;2023-08-30T13:24:55;3.78;;;0.52;;
59922;SDS011;45778;51.142;3.732;2023-08-30T13:27:21;6.28;;;0.75;;
59922;SDS011;45778;51.142;3.732;2023-08-30T13:29:47;3.38;;;0.88;;
59922;SDS011;45778;51.142;3.732;2023-08-30T13:32:13;4.03;;;0.60;;
59922;SDS011;45778;51.142;3.732;2023-08-30T13:34:39;3.22;;;0.95;;
59922;SDS011;45778;51.142;3.732;2023-08-30T13:37:05;3.20;;;0.63;;
59922;SDS011;45778;51.142;3.732;2023-08-30T13:39:31;3.80;;;0.60;;
59922;SDS011;45778;51.142;3.732;2023-08-30T13:41:57;3.35;;;0.93;;
59922;SDS011;45778;51.142;3.732;2023-08-30T13:44:23;2.65;;;0.52;;
59922;SDS011;45778;51.142;3.732;2023-08-30T13:46:49;3.33;;;0.47;;
59922;SDS011;45778;51.142;3.732;2023-08-30T13:49:15;3.45;;;0.55;;
59922;SDS011;45778;51.142;3.732;2023-08-30T13:51:41;0.93;;;0.50;;
59922;SDS011;45778;51.142;3.732;2023-08-30T13:54:06;2.72;;;0.40;;
59922;SDS011;45778;51.142;3.732;2023-08-30T13:56:33;2.58;;;0.75;;
59922;SDS011;45778;51.142;3.732;2023-08-30T13:58:58;3.40;;;0.75;;
59922;SDS011;45778;51.142;3.732;2023-08-30T14:01:24;3.28;;;0.70;;
59922;SDS011;45778;51.142;3.732;2023-08-30T14:03:50;0.90;;;0.32;;
59922;SDS011;45778;51.142;3.732;2023-08-30T14:06:16;4.60;;;0.50;;
59922;SDS011;45778;51.142;3.732;2023-08-30T14:08:45;3.80;;;0.70;;
59922;SDS011;45778;51.142;3.732;2023-08-30T14:11:10;4.20;;;0.93;;
59922;SDS011;45778;51.142;3.732;2023-08-30T14:13:36;3.00;;;0.80;;
59922;SDS011;45778;51.142;3.732;2023-08-30T14:16:02;3.03;;;0.80;;
59922;SDS011;45778;51.142;3.732;2023-08-30T14:18:31;3.70;;;0.95;;
59922;SDS011;45778;51.142;3.732;2023-08-30T14:20:57;4.28;;;0.60;;
59922;SDS011;45778;51.142;3.732;2023-08-30T14:23:27;2.65;;;0.80;;
59922;SDS011;45778;51.142;3.732;2023-08-30T14:26:03;2.20;;;0.65;;
59922;SDS011;45778;51.142;3.732;2023-08-30T14:28:34;5.25;;;0.85;;
59922;SDS011;45778;51.142;3.732;2023-08-30T14:31:01;2.85;;;1.05;;
59922;SDS011;45778;51.142;3.732;2023-08-30T14:33:27;4.22;;;1.10;;
59922;SDS011;45778;51.142;3.732;2023-08-30T14:35:52;3.90;;;0.57;;
59922;SDS011;45778;51.142;3.732;2023-08-30T14:38:19;2.88;;;0.60;;
59922;SDS011;45778;51.142;3.732;2023-08-30T14:40:53;3.00;;;0.63;;
59922;SDS011;45778;51.142;3.732;2023-08-30T14:43:23;6.25;;;0.90;;
59922;SDS011;45778;51.142;3.732;2023-08-30T14:45:49;5.82;;;1.08;;
59922;SDS011;45778;51.142;3.732;2023-08-30T14:48:14;6.30;;;0.85;;
59922;SDS011;45778;51.142;3.732;2023-08-30T14:50:43;5.88;;;0.90;;